Time;durP1;ratioP1;P1;durP2;ratioP2;P2;SDS_P1;SDS_P2;PMS_P1;PMS_P2;Temp;Humidity;BMP_temperature;BMP_pressure;BME280_temperature;BME280_humidity;BME280_pressure;Samples;Min_cycle;Max_cycle;Signal;HPM_P1;HPM_P2
2021/08/21 00:01:29;;;;;;;13.00;10.07;;;;;;;11.65;100.00;101025.41;5062408;28;20233;-70
2021/08/21 00:07:50;;;;;;;12.17;9.40;;;;;;;11.40;100.00;101033.81;5070685;28;20243;-70
2021/08/21 00:10:19;;;;;;;14.43;9.57;;;;;;;11.40;100.00;101038.16;5074333;28;20198;-71
2021/08/21 00:12:45;;;;;;;12.60;9.50;;;;;;;11.42;100.00;101036.41;5067049;28;20211;-70
2021/08/21 00:15:16;;;;;;;12.33;9.77;;;;;;;11.30;100.00;101030.53;5070792;28;20297;-70
2021/08/21 00:17:42;;;;;;;14.67;9.70;;;;;;;11.43;100.00;101025.03;5068748;28;20611;-71
2021/08/21 00:20:10;;;;;;;12.83;9.73;;;;;;;11.52;100.00;101032.66;5069505;28;20211;-69
2021/08/21 00:22:36;;;;;;;13.53;10.17;;;;;;;11.57;100.00;101022.97;5070198;28;20590;-71
2021/08/21 00:28:29;;;;;;;11.97;9.57;;;;;;;11.56;100.00;101029.94;5067540;28;20218;-70
2021/08/21 00:30:55;;;;;;;16.87;9.37;;;;;;;11.49;100.00;101037.97;5067065;28;20209;-70
2021/08/21 00:37:09;;;;;;;13.33;9.00;;;;;;;11.33;100.00;101040.94;5066182;28;20233;-71
2021/08/21 00:39:36;;;;;;;13.10;10.40;;;;;;;11.32;100.00;101039.19;5050189;28;20226;-70
2021/08/21 00:42:03;;;;;;;16.43;11.87;;;;;;;11.26;100.00;101038.50;5052950;28;20720;-70
2021/08/21 00:44:31;;;;;;;16.10;12.57;;;;;;;11.27;100.00;101034.97;5048149;28;20222;-70
2021/08/21 00:47:00;;;;;;;15.00;12.13;;;;;;;11.20;100.00;101046.44;5067688;28;20207;-70
2021/08/21 00:49:27;;;;;;;17.83;11.80;;;;;;;11.29;100.00;101054.06;5053349;28;20273;-70
2021/08/21 00:51:54;;;;;;;17.80;11.90;;;;;;;11.24;100.00;101053.31;5071497;28;20201;-70
2021/08/21 00:54:20;;;;;;;20.13;12.97;;;;;;;11.14;100.00;101055.28;5043694;28;20206;-71
2021/08/21 00:56:47;;;;;;;15.57;11.30;;;;;;;11.12;100.00;101054.47;5065260;28;20289;-72
2021/08/21 00:59:14;;;;;;;15.03;10.33;;;;;;;11.12;100.00;101052.69;5048241;28;20276;-71
2021/08/21 01:01:42;;;;;;;14.97;10.33;;;;;;;10.96;100.00;101053.91;5056081;28;20205;-71
2021/08/21 01:04:09;;;;;;;12.93;9.97;;;;;;;11.01;100.00;101049.47;5068025;28;20229;-70
2021/08/21 01:06:36;;;;;;;13.00;9.17;;;;;;;11.13;100.00;101048.31;5048474;28;20610;-70
2021/08/21 01:09:03;;;;;;;12.73;10.10;;;;;;;11.08;100.00;101043.22;5049470;28;20233;-71
2021/08/21 01:11:32;;;;;;;14.80;9.70;;;;;;;11.14;100.00;101031.78;5049258;28;20419;-71
2021/08/21 01:13:59;;;;;;;14.87;10.20;;;;;;;11.14;100.00;101031.78;5060544;28;20517;-71
2021/08/21 01:16:26;;;;;;;15.07;10.33;;;;;;;10.96;100.00;101033.06;5050515;28;20201;-70
2021/08/21 01:18:54;;;;;;;14.97;10.30;;;;;;;10.97;100.00;101038.22;5049326;28;20581;-70
2021/08/21 01:21:22;;;;;;;16.97;10.83;;;;;;;11.03;100.00;101034.63;5051573;28;20701;-70
2021/08/21 01:23:49;;;;;;;14.17;10.40;;;;;;;11.04;100.00;101033.72;5071038;28;20700;-71
2021/08/21 01:26:24;;;;;;;14.17;9.83;;;;;;;11.04;100.00;101031.13;5044969;28;20256;-70
2021/08/21 01:29:02;;;;;;;14.37;10.63;;;;;;;11.07;100.00;101031.06;5054187;28;20640;-70
2021/08/21 01:31:48;;;;;;;16.80;11.00;;;;;;;11.02;100.00;101029.44;5070425;28;22442;-70
2021/08/21 01:34:15;;;;;;;13.83;10.40;;;;;;;11.03;100.00;101032.03;5051639;28;20605;-70
2021/08/21 01:36:43;;;;;;;12.63;9.30;;;;;;;11.09;100.00;101037.09;5051890;28;20614;-70
2021/08/21 01:39:28;;;;;;;12.80;9.53;;;;;;;11.13;100.00;101027.44;5068300;28;20257;-71
2021/08/21 01:42:00;;;;;;;14.23;10.27;;;;;;;10.98;100.00;101037.34;5052283;28;20201;-70
2021/08/21 01:44:29;;;;;;;12.53;9.77;;;;;;;11.11;100.00;101037.06;5056758;28;20720;-71
2021/08/21 01:46:55;;;;;;;13.93;10.10;;;;;;;10.99;100.00;101038.19;5066341;28;20655;-72
2021/08/21 01:49:24;;;;;;;12.30;9.33;;;;;;;10.94;100.00;101035.69;5047681;28;20760;-71
2021/08/21 01:52:01;;;;;;;16.37;9.87;;;;;;;10.90;100.00;101027.94;5053644;28;20661;-71
2021/08/21 01:54:27;;;;;;;13.37;9.53;;;;;;;11.02;100.00;101027.69;5055150;28;20194;-71
2021/08/21 01:56:56;;;;;;;14.13;9.83;;;;;;;10.88;100.00;101029.72;5063770;28;20197;-71
2021/08/21 01:59:53;;;;;;;13.17;9.27;;;;;;;10.83;100.00;101031.56;5051120;28;20230;-71
2021/08/21 02:02:41;;;;;;;14.43;9.77;;;;;;;10.96;100.00;101026.06;5073929;28;20194;-70
2021/08/21 02:05:17;;;;;;;13.10;9.67;;;;;;;10.82;100.00;101032.47;5045544;28;20222;-70
2021/08/21 02:07:44;;;;;;;14.17;9.80;;;;;;;10.74;100.00;101040.44;5074524;28;20297;-72
2021/08/21 02:10:11;;;;;;;13.60;9.70;;;;;;;10.85;100.00;101038.47;5053685;28;20202;-70
2021/08/21 02:12:38;;;;;;;13.73;9.67;;;;;;;10.99;100.00;101040.78;5050738;28;20301;-70
2021/08/21 02:15:08;;;;;;;16.33;9.10;;;;;;;10.92;100.00;101047.91;5070809;28;20647;-71
2021/08/21 02:17:35;;;;;;;13.37;9.33;;;;;;;10.91;100.00;101048.78;5053596;28;20240;-70
2021/08/21 02:20:17;;;;;;;14.03;9.90;;;;;;;11.06;100.00;101044.13;5071861;28;20197;-70
2021/08/21 02:22:45;;;;;;;14.07;9.80;;;;;;;11.20;100.00;101055.13;5049775;28;20217;-70
2021/08/21 02:25:14;;;;;;;13.00;9.97;;;;;;;11.17;100.00;101052.59;5075944;28;20601;-71
2021/08/21 02:27:44;;;;;;;13.83;9.60;;;;;;;11.04;100.00;101057.22;5056996;28;20198;-71
2021/08/21 02:30:13;;;;;;;14.00;9.80;;;;;;;11.23;100.00;101042.03;5055249;28;20251;-70
2021/08/21 02:32:39;;;;;;;11.97;8.83;;;;;;;11.15;100.00;101041.31;5052063;28;20329;-70
2021/08/21 02:35:06;;;;;;;13.63;9.70;;;;;;;11.10;100.00;101043.16;5051270;28;20191;-72
2021/08/21 02:37:33;;;;;;;11.67;9.27;;;;;;;11.14;100.00;101039.63;5052897;28;20666;-70
2021/08/21 02:39:59;;;;;;;16.83;9.93;;;;;;;11.18;100.00;101043.88;5075472;28;20725;-71
2021/08/21 02:42:25;;;;;;;11.80;8.50;;;;;;;11.20;100.00;101036.84;5054507;28;20237;-70
2021/08/21 02:44:53;;;;;;;12.90;9.17;;;;;;;11.27;100.00;101038.44;5075655;28;20210;-71
2021/08/21 02:47:20;;;;;;;13.17;9.70;;;;;;;11.28;100.00;101034.94;5076979;28;20440;-70
2021/08/21 02:49:47;;;;;;;14.90;9.43;;;;;;;11.33;100.00;101037.47;5054667;28;20222;-70
2021/08/21 02:52:13;;;;;;;11.53;9.00;;;;;;;11.38;100.00;101038.22;5051192;28;20293;-70
2021/08/21 02:54:41;;;;;;;14.57;10.13;;;;;;;11.58;100.00;101032.53;5052175;28;20261;-71
2021/08/21 02:57:07;;;;;;;13.10;9.53;;;;;;;11.52;100.00;101036.16;5055288;28;20298;-70
2021/08/21 02:59:34;;;;;;;14.17;9.60;;;;;;;11.51;100.00;101039.63;5050078;28;20284;-71
2021/08/21 03:02:03;;;;;;;12.90;9.83;;;;;;;11.62;100.00;101038.53;5050241;28;20194;-71
2021/08/21 03:04:34;;;;;;;13.67;9.80;;;;;;;11.77;100.00;101037.28;5049329;28;20683;-71
2021/08/21 03:07:00;;;;;;;13.53;9.40;;;;;;;11.72;100.00;101047.88;5054036;28;20291;-70
2021/08/21 03:09:50;;;;;;;14.13;9.90;;;;;;;11.72;100.00;101055.69;5060046;28;20337;-71
2021/08/21 03:12:18;;;;;;;15.40;8.93;;;;;;;11.75;100.00;101042.56;5055472;28;20571;-71
2021/08/21 03:14:51;;;;;;;12.07;8.87;;;;;;;11.78;100.00;101047.69;5052529;28;20191;-71
2021/08/21 03:17:17;;;;;;;13.00;9.20;;;;;;;11.74;100.00;101049.53;5055300;28;20206;-70
2021/08/21 03:19:45;;;;;;;12.50;8.67;;;;;;;11.83;100.00;101050.22;5059476;28;20231;-70
2021/08/21 03:22:12;;;;;;;11.17;8.93;;;;;;;11.89;100.00;101050.03;5047083;28;20234;-72
2021/08/21 03:24:42;;;;;;;12.27;9.27;;;;;;;11.98;100.00;101051.59;5053580;28;20762;-70
2021/08/21 03:27:10;;;;;;;11.93;8.67;;;;;;;11.99;100.00;101051.56;5071544;28;20626;-70
2021/08/21 03:29:38;;;;;;;14.00;9.73;;;;;;;11.96;100.00;101056.00;5053175;28;20219;-71
2021/08/21 03:32:08;;;;;;;12.57;9.53;;;;;;;11.91;100.00;101061.38;5054147;28;20199;-71
2021/08/21 03:34:34;;;;;;;11.57;8.50;;;;;;;11.94;100.00;101063.88;5049724;28;20195;-71
2021/08/21 03:37:04;;;;;;;10.80;8.17;;;;;;;12.01;100.00;101062.84;5054743;28;20634;-70
2021/08/21 03:39:35;;;;;;;11.13;8.57;;;;;;;11.96;100.00;101056.91;5050353;28;20224;-70
2021/08/21 03:42:02;;;;;;;11.17;8.07;;;;;;;11.87;100.00;101057.94;5049674;28;20216;-71
2021/08/21 03:44:29;;;;;;;11.30;8.33;;;;;;;11.94;100.00;101061.28;5052481;28;20227;-71
2021/08/21 03:46:56;;;;;;;10.43;8.40;;;;;;;12.04;100.00;101059.31;5052794;28;20639;-71
2021/08/21 03:49:24;;;;;;;11.27;7.63;;;;;;;11.99;100.00;101054.19;5048594;28;20707;-71
2021/08/21 03:51:51;;;;;;;12.63;8.67;;;;;;;11.95;100.00;101052.56;5048733;28;20289;-70
2021/08/21 03:54:22;;;;;;;11.63;8.33;;;;;;;12.00;100.00;101055.91;5046502;28;20564;-70
2021/08/21 03:56:50;;;;;;;12.53;9.13;;;;;;;11.96;100.00;101056.00;5052849;28;20245;-70
2021/08/21 03:59:16;;;;;;;12.20;8.73;;;;;;;11.90;100.00;101055.28;5065370;28;20243;-71
2021/08/21 04:01:49;;;;;;;10.93;8.43;;;;;;;11.93;100.00;101054.34;5056711;28;20603;-70
2021/08/21 04:04:24;;;;;;;13.30;9.03;;;;;;;12.02;100.00;101061.94;5046789;28;20333;-72
2021/08/21 04:06:52;;;;;;;11.87;8.97;;;;;;;12.13;100.00;101059.06;5053583;28;20262;-71
2021/08/21 04:09:24;;;;;;;12.33;8.60;;;;;;;12.10;100.00;101060.00;5050858;28;20599;-70
2021/08/21 04:11:57;;;;;;;11.73;8.93;;;;;;;12.16;100.00;101060.75;5052997;28;20249;-71
2021/08/21 04:14:24;;;;;;;11.43;8.80;;;;;;;12.16;100.00;101063.38;5049333;28;20321;-71
2021/08/21 04:16:51;;;;;;;11.90;9.10;;;;;;;12.18;100.00;101075.50;5048461;28;20472;-71
2021/08/21 04:19:20;;;;;;;13.13;9.00;;;;;;;12.21;100.00;101070.19;5054092;28;20236;-71
2021/08/21 04:21:47;;;;;;;11.30;8.97;;;;;;;12.23;100.00;101076.22;5053943;28;20206;-70
2021/08/21 04:24:41;;;;;;;13.53;8.97;;;;;;;12.35;100.00;101082.91;5075747;28;20428;-71
2021/08/21 04:27:07;;;;;;;12.87;9.40;;;;;;;12.41;100.00;101077.50;5047592;28;20204;-70
2021/08/21 04:29:37;;;;;;;11.60;9.10;;;;;;;12.41;100.00;101079.25;5050000;28;20743;-71
2021/08/21 04:32:04;;;;;;;13.57;9.00;;;;;;;12.42;100.00;101081.00;5049831;28;20264;-72
2021/08/21 04:34:34;;;;;;;11.47;8.90;;;;;;;12.46;100.00;101087.84;5053510;28;20196;-71
2021/08/21 04:37:03;;;;;;;12.33;9.00;;;;;;;12.52;100.00;101085.06;5052963;28;20208;-71
2021/08/21 04:39:31;;;;;;;13.03;9.00;;;;;;;12.54;100.00;101090.25;5053725;28;20225;-71
2021/08/21 04:41:59;;;;;;;11.30;8.90;;;;;;;12.58;100.00;101092.75;5055398;28;20205;-71
2021/08/21 04:44:27;;;;;;;12.43;8.70;;;;;;;12.70;100.00;101083.72;5050478;28;20292;-70
2021/08/21 04:46:54;;;;;;;12.57;9.33;;;;;;;12.69;100.00;101092.47;5051208;28;20256;-71
2021/08/21 04:49:22;;;;;;;12.50;9.03;;;;;;;12.71;100.00;101097.66;5064421;28;20362;-70
2021/08/21 04:51:49;;;;;;;12.73;9.27;;;;;;;12.73;100.00;101096.69;5074630;28;20293;-71
2021/08/21 04:54:20;;;;;;;11.03;8.47;;;;;;;12.78;100.00;101086.13;5044936;28;20245;-71
2021/08/21 04:56:47;;;;;;;14.00;9.07;;;;;;;12.82;100.00;101088.63;5053014;28;20208;-71
2021/08/21 04:59:26;;;;;;;12.00;8.50;;;;;;;12.84;100.00;101093.78;5050558;28;20229;-71
2021/08/21 05:01:57;;;;;;;11.57;8.70;;;;;;;12.90;100.00;101090.16;5051806;28;20540;-71
2021/08/21 05:04:24;;;;;;;11.60;8.47;;;;;;;12.96;100.00;101097.81;5048367;28;20196;-71
2021/08/21 05:06:52;;;;;;;12.27;9.13;;;;;;;13.01;100.00;101101.16;5048267;28;20935;-71
2021/08/21 05:09:19;;;;;;;13.63;9.03;;;;;;;13.06;100.00;101110.59;5049162;28;20223;-71
2021/08/21 05:11:50;;;;;;;10.40;8.47;;;;;;;13.15;100.00;101103.38;5047284;28;20701;-70
2021/08/21 05:14:17;;;;;;;11.13;8.20;;;;;;;13.21;100.00;101098.84;5048308;28;20207;-71
2021/08/21 05:16:46;;;;;;;11.53;8.73;;;;;;;13.27;100.00;101096.00;5048994;28;20665;-71
2021/08/21 05:19:32;;;;;;;11.80;8.97;;;;;;;13.33;100.00;101104.63;5064225;28;20242;-71
2021/08/21 05:22:10;;;;;;;12.47;9.20;;;;;;;13.37;100.00;101099.25;5050473;28;20201;-70
2021/08/21 05:24:37;;;;;;;11.00;8.40;;;;;;;13.44;100.00;101099.94;5052025;28;20202;-72
2021/08/21 05:27:04;;;;;;;12.70;8.53;;;;;;;13.51;100.00;101105.81;5068506;28;20206;-70
2021/08/21 05:29:31;;;;;;;13.03;8.93;;;;;;;13.55;100.00;101112.69;5051101;28;20249;-71
2021/08/21 05:32:00;;;;;;;11.10;8.80;;;;;;;13.58;100.00;101118.72;5069277;28;20216;-71
2021/08/21 05:34:26;;;;;;;12.33;8.87;;;;;;;13.63;100.00;101129.03;5067113;28;20288;-71
2021/08/21 05:36:53;;;;;;;11.33;8.00;;;;;;;13.66;100.00;101131.56;5070737;28;20633;-71
2021/08/21 05:39:19;;;;;;;11.97;8.73;;;;;;;13.73;100.00;101130.47;5067891;28;20570;-71
2021/08/21 05:41:45;;;;;;;11.40;8.93;;;;;;;13.74;100.00;101144.44;5062045;28;20210;-72
2021/08/21 05:44:12;;;;;;;11.37;9.10;;;;;;;13.83;100.00;101142.38;5070829;28;20206;-72
2021/08/21 05:46:38;;;;;;;10.53;8.30;;;;;;;13.90;100.00;101147.44;5070379;28;20217;-71
2021/08/21 05:49:06;;;;;;;13.70;9.00;;;;;;;13.92;100.00;101149.09;5070370;28;20220;-71
2021/08/21 05:51:32;;;;;;;11.90;8.27;;;;;;;13.98;100.00;101148.03;5079794;28;20192;-71
2021/08/21 05:53:59;;;;;;;10.67;8.53;;;;;;;14.10;100.00;101146.78;5070470;28;20216;-71
2021/08/21 05:56:25;;;;;;;10.57;8.07;;;;;;;14.16;100.00;101152.69;5075919;28;20196;-71
2021/08/21 05:58:52;;;;;;;10.73;8.23;;;;;;;14.23;100.00;101153.34;5071373;28;20389;-71
2021/08/21 06:01:18;;;;;;;10.10;8.00;;;;;;;14.32;100.00;101147.78;5073190;28;20212;-71
2021/08/21 06:03:45;;;;;;;10.27;8.43;;;;;;;14.42;100.00;101150.09;5071091;28;20209;-71
2021/08/21 06:06:14;;;;;;;13.33;8.53;;;;;;;14.48;100.00;101145.50;5075055;28;20224;-71
2021/08/21 06:08:41;;;;;;;9.10;7.57;;;;;;;14.55;100.00;101148.78;5062602;28;20221;-71
2021/08/21 06:11:08;;;;;;;9.93;8.43;;;;;;;14.66;100.00;101156.31;5053449;28;20207;-71
2021/08/21 06:13:39;;;;;;;10.20;8.20;;;;;;;14.71;100.00;101154.41;5068681;28;20222;-72
2021/08/21 06:16:06;;;;;;;10.97;8.50;;;;;;;14.75;100.00;101151.59;5066478;28;20570;-71
2021/08/21 06:18:32;;;;;;;11.17;7.73;;;;;;;14.86;100.00;101160.84;5078427;28;20227;-71
2021/08/21 06:20:59;;;;;;;12.70;8.27;;;;;;;14.90;100.00;101162.47;5055665;28;20674;-72
2021/08/21 06:23:27;;;;;;;9.97;8.30;;;;;;;14.95;100.00;101161.41;5054630;28;20285;-71
2021/08/21 06:25:53;;;;;;;9.77;7.93;;;;;;;15.02;99.33;101163.78;5066577;28;20235;-72
2021/08/21 06:28:19;;;;;;;10.27;7.63;;;;;;;15.04;99.37;101156.72;5071571;28;20327;-72
2021/08/21 06:30:46;;;;;;;11.70;8.27;;;;;;;15.11;99.52;101161.69;5070142;28;20197;-71
2021/08/21 06:36:59;;;;;;;11.50;8.40;;;;;;;15.14;98.71;101164.22;5070017;28;20209;-71
2021/08/21 06:39:27;;;;;;;11.67;8.50;;;;;;;15.15;98.05;101167.69;5070226;28;20224;-72
2021/08/21 06:41:54;;;;;;;10.37;7.83;;;;;;;15.20;98.13;101162.28;5070425;28;20302;-72
2021/08/21 06:44:20;;;;;;;9.23;7.90;;;;;;;15.29;97.75;101160.16;5065486;28;20759;-71
2021/08/21 06:47:33;;;;;;;9.17;7.77;;;;;;;15.37;97.45;101164.25;5071469;28;20220;-71
2021/08/21 06:50:01;;;;;;;9.60;7.77;;;;;;;15.48;98.12;101157.69;5068239;28;20689;-72
2021/08/21 06:59:21;;;;;;;10.53;8.27;;;;;;;15.85;95.63;101158.94;5045308;28;20221;-72
2021/08/21 07:01:48;;;;;;;12.00;8.50;;;;;;;15.96;94.89;101161.13;5063651;28;20202;-72
2021/08/21 07:04:15;;;;;;;13.17;8.57;;;;;;;16.05;93.75;101171.28;5067978;28;20689;-72
2021/08/21 07:06:41;;;;;;;10.93;8.30;;;;;;;16.10;91.32;101165.84;5066398;28;20691;-72
2021/08/21 07:09:51;;;;;;;9.80;7.93;;;;;;;16.28;92.48;101172.97;5069672;28;20218;-72
2021/08/21 07:12:18;;;;;;;9.90;7.93;;;;;;;16.45;91.94;101169.63;5067371;28;20198;-72
2021/08/21 07:14:46;;;;;;;9.67;7.57;;;;;;;16.62;91.95;101170.69;5066170;28;20390;-72
2021/08/21 07:17:14;;;;;;;9.90;8.27;;;;;;;16.69;90.21;101174.75;5070492;28;20198;-72
2021/08/21 07:19:42;;;;;;;11.83;8.43;;;;;;;16.73;89.09;101179.00;5064252;28;20233;-72
2021/08/21 07:22:09;;;;;;;11.07;7.90;;;;;;;16.80;89.46;101184.84;5068683;28;20206;-72
2021/08/21 07:24:35;;;;;;;8.67;6.93;;;;;;;16.96;88.91;101183.28;5062801;28;20198;-72
2021/08/21 07:27:01;;;;;;;10.57;8.10;;;;;;;17.13;88.00;101187.81;5062914;28;20223;-72
2021/08/21 07:29:28;;;;;;;11.77;7.87;;;;;;;17.09;86.82;101183.59;5065785;28;20234;-72
2021/08/21 07:31:56;;;;;;;9.33;7.30;;;;;;;17.16;84.99;101189.44;5065612;28;20198;-72
2021/08/21 07:34:22;;;;;;;10.27;7.30;;;;;;;17.33;87.21;101192.19;5063832;28;20206;-73
2021/08/21 07:36:49;;;;;;;10.00;7.90;;;;;;;17.36;85.73;101194.69;5064959;28;20587;-72
2021/08/21 07:39:15;;;;;;;9.40;8.00;;;;;;;17.43;84.52;101197.91;5063997;28;20261;-72
2021/08/21 07:41:41;;;;;;;9.60;7.50;;;;;;;17.55;83.18;101196.47;5070103;28;20563;-72
2021/08/21 07:44:08;;;;;;;13.73;8.90;;;;;;;17.69;82.92;101196.66;5064425;28;20537;-72
2021/08/21 07:46:34;;;;;;;10.40;8.03;;;;;;;17.82;83.22;101198.72;5065360;28;20715;-73
2021/08/21 07:49:02;;;;;;;9.33;7.53;;;;;;;18.02;82.49;101200.47;5062600;28;20222;-73
2021/08/21 07:51:28;;;;;;;10.97;7.87;;;;;;;18.15;83.13;101205.09;5065330;28;20212;-73
2021/08/21 07:53:54;;;;;;;10.90;7.93;;;;;;;18.15;79.39;101212.13;5064967;28;20202;-73
2021/08/21 07:56:21;;;;;;;10.73;8.10;;;;;;;18.15;78.42;101209.47;5065132;28;20199;-73
2021/08/21 07:58:47;;;;;;;8.93;7.53;;;;;;;18.27;78.59;101202.75;5064953;28;20218;-72
2021/08/21 08:01:13;;;;;;;10.07;7.57;;;;;;;18.41;79.84;101210.00;5063737;28;20214;-73
2021/08/21 08:03:40;;;;;;;13.03;7.73;;;;;;;18.51;79.49;101209.47;5070462;28;20574;-73
2021/08/21 08:06:08;;;;;;;10.43;7.90;;;;;;;18.66;79.09;101213.13;5060777;28;20218;-73
2021/08/21 08:08:34;;;;;;;11.30;8.40;;;;;;;18.84;79.34;101210.50;5066944;28;20829;-73
2021/08/21 08:11:01;;;;;;;9.30;7.53;;;;;;;18.93;76.91;101220.59;5063061;28;20293;-73
2021/08/21 08:13:36;;;;;;;10.00;7.93;;;;;;;19.02;75.43;101221.91;5066476;28;20207;-73
2021/08/21 08:23:38;;;;;;;9.13;7.10;;;;;;;19.72;75.12;101221.69;5070536;22;20352;-73
2021/08/21 08:26:04;;;;;;;9.37;6.90;;;;;;;19.79;74.60;101221.31;5081923;22;20229;-73
2021/08/21 08:28:31;;;;;;;8.30;6.67;;;;;;;19.69;73.89;101222.72;5077743;28;20206;-73
2021/08/21 08:30:57;;;;;;;7.87;7.03;;;;;;;19.76;75.76;101210.91;5080190;28;20563;-73
2021/08/21 08:33:23;;;;;;;7.83;7.03;;;;;;;19.75;74.55;101214.50;5086014;28;20209;-73
2021/08/21 08:35:51;;;;;;;8.53;6.43;;;;;;;19.81;74.41;101215.94;5080463;28;20222;-73
2021/08/21 08:42:07;;;;;;;9.50;7.07;;;;;;;19.84;72.30;101223.69;5083754;28;20209;-73
2021/08/21 08:44:34;;;;;;;8.17;6.20;;;;;;;19.90;73.28;101220.72;5082998;28;20228;-72
2021/08/21 08:47:02;;;;;;;8.03;6.60;;;;;;;20.12;71.86;101220.38;5085265;28;20661;-73
2021/08/21 08:49:29;;;;;;;7.03;6.30;;;;;;;20.40;71.93;101227.59;5086278;28;20718;-72
2021/08/21 08:51:56;;;;;;;8.13;6.63;;;;;;;20.59;67.51;101234.44;5084826;28;20224;-71
2021/08/21 08:54:22;;;;;;;7.37;6.30;;;;;;;20.59;66.54;101235.28;5086910;28;20233;-73
2021/08/21 09:00:37;;;;;;;8.73;6.33;;;;;;;20.61;68.11;101225.50;5081801;28;20575;-73
2021/08/21 09:03:27;;;;;;;6.30;5.20;;;;;;;20.62;67.92;101231.66;5067910;28;20815;-73
2021/08/21 09:05:54;;;;;;;8.00;5.70;;;;;;;20.86;68.48;101225.81;5083183;28;20230;-74
2021/08/21 09:08:22;;;;;;;6.67;5.90;;;;;;;20.98;68.31;101227.75;5087505;28;20562;-74
2021/08/21 09:18:25;;;;;;;6.53;5.43;;;;;;;21.33;65.24;101224.72;5092430;28;20189;-75
2021/08/21 09:21:00;;;;;;;5.73;5.07;;;;;;;21.35;65.92;101222.84;5087350;28;20201;-75
2021/08/21 09:23:44;;;;;;;5.23;4.73;;;;;;;21.34;65.75;101223.81;5088336;28;20296;-73
2021/08/21 09:29:57;;;;;;;5.93;5.20;;;;;;;21.41;63.38;101234.88;5025899;28;20211;-73
2021/08/21 09:32:29;;;;;;;5.30;4.80;;;;;;;21.45;64.73;101225.78;5050735;28;20207;-73
2021/08/21 09:38:44;;;;;;;9.63;5.37;;;;;;;21.44;64.96;101221.41;5084194;28;20199;-73
2021/08/21 09:42:07;;;;;;;7.10;5.20;;;;;;;21.43;65.22;101219.72;5084113;28;20209;-72
2021/08/21 09:44:35;;;;;;;5.40;4.50;;;;;;;21.55;64.75;101222.47;5089665;28;20226;-73
2021/08/21 09:47:14;;;;;;;6.10;5.00;;;;;;;21.72;64.60;101216.13;5088517;28;20220;-73
2021/08/21 09:49:41;;;;;;;6.17;4.50;;;;;;;21.96;65.11;101209.31;5091858;28;20220;-72
2021/08/21 09:52:11;;;;;;;6.30;4.80;;;;;;;22.17;63.30;101213.22;5086076;28;20703;-73
2021/08/21 09:54:40;;;;;;;5.87;5.23;;;;;;;22.24;61.30;101224.31;5091845;28;20241;-72
2021/08/21 09:57:06;;;;;;;5.40;4.70;;;;;;;22.30;60.48;101218.59;5087371;28;20198;-74
2021/08/21 10:07:09;;;;;;;5.27;4.37;;;;;;;22.47;63.21;101197.06;5086847;28;20247;-73
2021/08/21 10:10:35;;;;;;;5.53;4.43;;;;;;;22.69;62.37;101204.47;5086199;28;20197;-74
2021/08/21 10:13:45;;;;;;;5.63;4.73;;;;;;;22.66;59.78;101201.16;5087998;28;20237;-74
2021/08/21 10:16:14;;;;;;;4.80;4.37;;;;;;;22.68;61.72;101199.25;5086552;28;20236;-71
2021/08/21 10:18:43;;;;;;;4.75;4.22;;;;;;;22.67;60.53;101203.72;5087415;28;20684;-72
2021/08/21 10:21:10;;;;;;;5.57;4.68;;;;;;;22.71;59.94;101198.19;5086715;28;20541;-72
2021/08/21 10:23:42;;;;;;;5.18;4.25;;;;;;;22.69;61.52;101201.81;5090622;28;20204;-74
2021/08/21 10:26:21;;;;;;;5.30;4.20;;;;;;;22.77;61.67;101203.94;5089155;28;20229;-73
2021/08/21 10:28:48;;;;;;;6.30;4.70;;;;;;;23.03;59.77;101201.28;5085992;28;20645;-72
2021/08/21 10:31:30;;;;;;;6.78;4.90;;;;;;;;;;5090145;28;20963;-72
2021/08/21 10:33:58;;;;;;;5.00;4.50;;;;;;;23.41;59.17;101211.94;5085733;28;20737;-73
2021/08/21 10:36:40;;;;;;;6.57;4.97;;;;;;;23.60;60.73;101198.13;5083555;28;20289;-73
2021/08/21 10:39:14;;;;;;;5.68;5.18;;;;;;;23.65;56.63;101204.94;5086931;28;20207;-73
2021/08/21 10:41:40;;;;;;;6.15;5.10;;;;;;;23.69;57.62;101199.28;5088457;28;20594;-73
2021/08/21 10:44:07;;;;;;;6.68;5.00;;;;;;;23.62;56.22;101198.03;5087081;28;20204;-73
2021/08/21 10:46:56;;;;;;;5.30;4.80;;;;;;;23.77;57.17;101196.91;5085259;28;20218;-73
2021/08/21 10:49:57;;;;;;;6.07;5.15;;;;;;;23.88;58.82;101184.66;5080446;28;20298;-72
2021/08/21 10:52:46;;;;;;;5.25;4.75;;;;;;;24.00;56.47;101189.94;5020275;28;20655;-73
2021/08/21 10:55:14;;;;;;;5.30;4.80;;;;;;;24.11;57.52;101182.97;5021797;28;20223;-72
2021/08/21 10:57:55;;;;;;;4.65;4.22;;;;;;;24.23;54.70;101184.72;5063479;28;20206;-71
2021/08/21 11:00:43;;;;;;;6.30;4.40;;;;;;;24.30;56.63;101177.94;5089043;28;20202;-72
2021/08/21 11:03:11;;;;;;;5.38;4.60;;;;;;;24.48;55.20;101186.34;5084116;28;20325;-73
2021/08/21 11:05:54;;;;;;;5.45;4.95;;;;;;;24.59;53.73;101190.94;5084619;28;20232;-73
2021/08/21 11:08:21;;;;;;;5.07;4.57;;;;;;;24.69;53.25;101188.38;5080863;28;20232;-74
2021/08/21 11:10:48;;;;;;;4.53;4.13;;;;;;;24.94;52.99;101185.53;5092704;28;20217;-72
2021/08/21 11:13:48;;;;;;;6.32;4.75;;;;;;;25.01;50.07;101187.69;5083108;28;20224;-73
2021/08/21 11:16:15;;;;;;;5.13;4.20;;;;;;;25.11;52.77;101181.50;5086702;28;20226;-73
2021/08/21 11:18:45;;;;;;;5.28;4.40;;;;;;;25.08;52.22;101184.44;5090231;28;20599;-73
2021/08/21 11:21:33;;;;;;;5.28;4.38;;;;;;;25.21;51.84;101178.16;5081868;28;20210;-72
2021/08/21 11:23:59;;;;;;;4.72;4.30;;;;;;;25.07;49.69;101181.91;5087608;28;20216;-74
2021/08/21 11:26:26;;;;;;;4.95;4.40;;;;;;;25.06;52.23;101172.19;5085968;28;20212;-70
2021/08/21 11:29:06;;;;;;;6.60;4.38;;;;;;;24.93;50.15;101181.16;5086032;28;20585;-73
2021/08/21 11:31:51;;;;;;;4.82;3.85;;;;;;;25.17;52.22;101174.00;5088504;28;20197;-73
2021/08/21 11:34:19;;;;;;;4.25;3.85;;;;;;;25.17;51.52;101172.19;5086557;28;20252;-73
2021/08/21 11:36:47;;;;;;;5.07;4.05;;;;;;;24.86;50.69;101181.75;5087637;28;20194;-73
2021/08/21 11:39:14;;;;;;;4.95;4.20;;;;;;;24.55;51.60;101177.00;5082824;28;20701;-73
2021/08/21 11:41:40;;;;;;;4.45;3.95;;;;;;;24.41;52.43;101177.13;5087074;28;20702;-73
2021/08/21 11:44:07;;;;;;;3.97;3.58;;;;;;;24.24;53.38;101169.56;5088517;28;20212;-72
2021/08/21 11:46:34;;;;;;;4.43;3.70;;;;;;;24.19;52.71;101170.78;5092770;28;20566;-73
2021/08/21 11:49:07;;;;;;;7.07;3.78;;;;;;;24.16;53.64;101162.16;5087473;28;20198;-73
2021/08/21 11:51:38;;;;;;;4.38;3.97;;;;;;;24.11;53.03;101174.97;5084325;28;20766;-72
2021/08/21 11:54:05;;;;;;;4.70;4.20;;;;;;;24.00;55.04;101165.13;5092791;28;20239;-73
2021/08/21 11:56:32;;;;;;;4.85;4.35;;;;;;;23.89;54.26;101155.28;5087360;28;20202;-71
2021/08/21 11:59:07;;;;;;;4.35;3.90;;;;;;;23.83;55.80;101155.72;5092603;28;20803;-71
2021/08/21 12:01:36;;;;;;;8.98;4.75;;;;;;;23.67;55.63;101152.44;5089629;28;20211;-73
2021/08/21 12:04:22;;;;;;;4.90;4.40;;;;;;;23.71;55.83;101152.13;5087749;28;20209;-73
2021/08/21 12:06:49;;;;;;;4.82;4.32;;;;;;;23.72;55.21;101150.31;5088535;28;20221;-73
2021/08/21 12:09:18;;;;;;;4.82;4.07;;;;;;;23.83;53.79;101154.88;5086650;28;20224;-73
2021/08/21 12:11:46;;;;;;;5.63;4.60;;;;;;;23.99;54.37;101156.28;5091828;28;20205;-74
2021/08/21 12:14:15;;;;;;;4.30;3.90;;;;;;;24.35;52.78;101156.31;5084800;28;20264;-74
2021/08/21 12:16:43;;;;;;;5.00;4.07;;;;;;;24.69;54.37;101148.41;5090563;28;20196;-72
2021/08/21 12:19:10;;;;;;;4.43;4.03;;;;;;;24.89;54.43;101146.84;5085075;28;20205;-73
2021/08/21 12:21:38;;;;;;;4.95;4.30;;;;;;;24.94;52.05;101155.31;5085914;28;20198;-73
2021/08/21 12:24:08;;;;;;;4.40;4.00;;;;;;;25.05;52.92;101141.16;5084399;28;20654;-73
2021/08/21 12:26:38;;;;;;;4.38;3.92;;;;;;;25.12;50.67;101147.72;5085674;28;20217;-73
2021/08/21 12:29:06;;;;;;;4.35;3.95;;;;;;;25.25;51.05;101144.94;5085191;28;20212;-73
2021/08/21 12:31:35;;;;;;;3.85;3.42;;;;;;;25.41;50.95;101145.38;5084303;28;20205;-73